createdAt,value
2023-08-05T00:00:23.907Z,17.15
2023-08-05T00:01:23.918Z,17.17
2023-08-05T00:02:23.881Z,17.18
2023-08-05T00:03:23.880Z,17.20
2023-08-05T00:04:23.850Z,17.14
2023-08-05T00:05:23.843Z,17.15
2023-08-05T00:06:23.841Z,17.14
2023-08-05T00:07:23.818Z,17.13
2023-08-05T00:08:23.806Z,17.15
2023-08-05T00:09:23.812Z,17.13
2023-08-05T00:10:23.794Z,17.14
2023-08-05T00:11:23.803Z,16.99
2023-08-05T00:12:23.788Z,17.10
2023-08-05T00:13:23.751Z,17.03
2023-08-05T00:14:23.736Z,16.99
2023-08-05T00:15:23.729Z,16.95
2023-08-05T00:16:23.749Z,16.99
2023-08-05T00:17:23.724Z,16.89
2023-08-05T00:18:23.692Z,16.83
2023-08-05T00:19:23.694Z,16.96
2023-08-05T00:20:23.680Z,16.80
2023-08-05T00:21:23.687Z,16.90
2023-08-05T00:22:23.656Z,16.92
2023-08-05T00:23:23.650Z,16.80
2023-08-05T00:24:23.640Z,16.83
2023-08-05T00:25:23.612Z,16.81
2023-08-05T00:26:23.600Z,16.80
2023-08-05T00:27:23.587Z,16.83
2023-08-05T00:28:23.600Z,16.85
2023-08-05T00:29:23.580Z,16.78
2023-08-05T00:30:23.552Z,16.80
2023-08-05T00:31:23.624Z,16.80
2023-08-05T00:32:23.565Z,16.85
2023-08-05T00:33:23.527Z,16.81
2023-08-05T00:34:23.515Z,16.70
2023-08-05T00:35:23.506Z,16.68
2023-08-05T00:36:23.513Z,16.68
2023-08-05T00:37:23.529Z,16.71
2023-08-05T00:38:23.462Z,16.67
2023-08-05T00:39:23.457Z,16.78
2023-08-05T00:40:23.439Z,16.65
2023-08-05T00:41:23.455Z,16.68
2023-08-05T00:42:23.415Z,16.75
2023-08-05T00:43:23.405Z,16.74
2023-08-05T00:44:23.420Z,16.63
2023-08-05T00:45:23.388Z,16.65
2023-08-05T00:46:23.464Z,16.73
2023-08-05T00:47:23.480Z,16.62
2023-08-05T00:48:23.358Z,16.62
2023-08-05T00:49:23.338Z,16.63
2023-08-05T00:50:23.378Z,16.67
2023-08-05T00:51:23.317Z,16.58
2023-08-05T00:52:23.339Z,16.74
2023-08-05T00:53:23.291Z,16.62
2023-08-05T00:54:23.335Z,16.67
2023-08-05T00:55:23.269Z,16.60
2023-08-05T00:56:23.255Z,16.49
2023-08-05T00:57:23.265Z,16.55
2023-08-05T00:58:23.247Z,16.49
2023-08-05T00:59:23.224Z,16.52
2023-08-05T01:00:23.233Z,16.42
2023-08-05T01:01:23.257Z,16.48
2023-08-05T01:02:23.219Z,16.40
2023-08-05T01:03:23.178Z,16.42
2023-08-05T01:04:23.165Z,16.55
2023-08-05T01:05:23.188Z,16.38
2023-08-05T01:06:23.145Z,16.30
2023-08-05T01:07:23.209Z,16.40
2023-08-05T01:08:23.139Z,16.35
2023-08-05T01:09:23.111Z,16.31
2023-08-05T01:10:23.126Z,16.33
2023-08-05T01:11:23.090Z,16.34
2023-08-05T01:12:23.076Z,16.38
2023-08-05T01:13:23.071Z,16.23
2023-08-05T01:14:23.080Z,16.26
2023-08-05T01:15:23.042Z,16.27
2023-08-05T01:16:23.078Z,16.27
2023-08-05T01:17:23.032Z,16.31
2023-08-05T01:18:23.008Z,16.22
2023-08-05T01:19:23.007Z,16.22
2023-08-05T01:20:23.011Z,16.27
2023-08-05T01:21:22.986Z,16.22
2023-08-05T01:22:22.983Z,16.20
2023-08-05T01:23:23.030Z,16.16
2023-08-05T01:24:23.134Z,16.09
2023-08-05T01:25:22.955Z,16.30
2023-08-05T01:26:22.922Z,16.22
2023-08-05T01:27:22.932Z,16.20
2023-08-05T01:28:22.937Z,16.11
2023-08-05T01:29:22.894Z,16.12
2023-08-05T01:30:22.890Z,16.03
2023-08-05T01:31:22.951Z,16.00
2023-08-05T01:32:22.925Z,16.03
2023-08-05T01:33:22.842Z,16.03
2023-08-05T01:34:22.829Z,16.09
2023-08-05T01:35:22.829Z,16.00
2023-08-05T01:36:22.828Z,15.93
2023-08-05T01:37:23.045Z,15.96
2023-08-05T01:38:22.800Z,15.93
2023-08-05T01:39:22.787Z,15.97
2023-08-05T01:40:22.772Z,15.94
2023-08-05T01:41:22.852Z,15.89
2023-08-05T01:42:22.762Z,15.92
2023-08-05T01:43:22.732Z,15.99
2023-08-05T01:44:22.720Z,15.85
2023-08-05T01:45:22.709Z,15.94
2023-08-05T01:46:22.741Z,15.78
2023-08-05T01:47:22.699Z,15.86
2023-08-05T01:48:22.693Z,15.76
2023-08-05T01:49:22.680Z,15.85
2023-08-05T01:50:22.654Z,15.79
2023-08-05T01:51:22.643Z,15.84
2023-08-05T01:52:22.652Z,15.84
2023-08-05T01:53:22.621Z,15.81
2023-08-05T01:54:22.607Z,15.78
2023-08-05T01:55:22.604Z,15.88
2023-08-05T01:56:22.607Z,15.84
2023-08-05T01:57:22.609Z,15.85
2023-08-05T01:58:22.570Z,15.88
2023-08-05T01:59:22.574Z,15.85
2023-08-05T02:00:23.323Z,15.86
2023-08-05T02:01:22.598Z,15.81
2023-08-05T02:02:22.623Z,15.85
2023-08-05T02:03:22.656Z,15.85
2023-08-05T02:04:22.527Z,15.78
2023-08-05T02:05:22.496Z,15.81
2023-08-05T02:06:22.479Z,15.78
2023-08-05T02:07:22.595Z,15.78
2023-08-05T02:08:22.462Z,15.79
2023-08-05T02:09:22.446Z,15.74
2023-08-05T02:10:22.433Z,15.75
2023-08-05T02:11:22.489Z,15.81
2023-08-05T02:12:22.432Z,15.82
2023-08-05T02:13:22.401Z,15.86
2023-08-05T02:14:22.390Z,15.76
2023-08-05T02:15:22.393Z,15.75
2023-08-05T02:16:22.379Z,15.76
2023-08-05T02:17:22.482Z,15.74
2023-08-05T02:18:22.348Z,15.68
2023-08-05T02:19:22.347Z,15.76
2023-08-05T02:20:22.347Z,15.75
2023-08-05T02:21:22.329Z,15.82
2023-08-05T02:22:22.360Z,15.72
2023-08-05T02:23:22.291Z,15.74
2023-08-05T02:24:22.289Z,15.66
2023-08-05T02:25:22.288Z,15.67
2023-08-05T02:26:22.272Z,15.67
2023-08-05T02:27:22.270Z,15.68
2023-08-05T02:28:22.229Z,15.67
2023-08-05T02:29:22.233Z,15.75
2023-08-05T02:30:22.220Z,15.74
2023-08-05T02:31:22.287Z,15.57
2023-08-05T02:32:22.212Z,15.57
2023-08-05T02:33:22.181Z,15.67
2023-08-05T02:34:22.170Z,15.70
2023-08-05T02:35:22.159Z,15.63
2023-08-05T02:36:22.168Z,15.61
2023-08-05T02:37:22.149Z,15.66
2023-08-05T02:38:22.122Z,15.61
2023-08-05T02:39:22.126Z,15.63
2023-08-05T02:40:22.105Z,15.59
2023-08-05T02:41:22.100Z,15.70
2023-08-05T02:42:22.095Z,15.54
2023-08-05T02:43:22.076Z,15.72
2023-08-05T02:44:22.058Z,15.66
2023-08-05T02:45:22.056Z,15.61
2023-08-05T02:46:22.053Z,15.56
2023-08-05T02:47:22.060Z,15.72
2023-08-05T02:48:22.012Z,15.63
2023-08-05T02:49:22.007Z,15.61
2023-08-05T02:50:22.004Z,15.54
2023-08-05T02:51:22.001Z,15.52
2023-08-05T02:52:22.021Z,15.46
2023-08-05T02:53:21.979Z,15.56
2023-08-05T02:54:21.952Z,15.52
2023-08-05T02:55:21.944Z,15.54
2023-08-05T02:56:21.930Z,15.43
2023-08-05T02:57:21.927Z,15.51
2023-08-05T02:58:21.922Z,15.51
2023-08-05T02:59:21.897Z,15.31
2023-08-05T03:00:21.884Z,15.46
2023-08-05T03:01:21.899Z,15.39
2023-08-05T03:02:21.870Z,15.33
2023-08-05T03:03:21.873Z,15.36
2023-08-05T03:04:21.841Z,15.36
2023-08-05T03:05:21.865Z,15.41
2023-08-05T03:06:21.821Z,15.42
2023-08-05T03:07:21.808Z,15.35
2023-08-05T03:08:21.833Z,15.36
2023-08-05T03:09:21.808Z,15.35
2023-08-05T03:10:21.773Z,15.36
2023-08-05T03:11:21.764Z,15.45
2023-08-05T03:12:21.752Z,15.38
2023-08-05T03:13:21.770Z,15.42
2023-08-05T03:14:21.728Z,15.41
2023-08-05T03:15:21.728Z,15.48
2023-08-05T03:16:21.768Z,15.42
2023-08-05T03:17:21.696Z,15.51
2023-08-05T03:18:21.707Z,15.51
2023-08-05T03:19:21.676Z,15.45
2023-08-05T03:20:21.663Z,15.45
2023-08-05T03:21:21.660Z,15.46
2023-08-05T03:22:21.642Z,15.56
2023-08-05T03:23:21.646Z,15.52
2023-08-05T03:24:21.640Z,15.56
2023-08-05T03:25:21.613Z,15.60
2023-08-05T03:26:21.600Z,15.61
2023-08-05T03:27:21.591Z,15.56
2023-08-05T03:28:21.614Z,15.64
2023-08-05T03:29:21.564Z,15.46
2023-08-05T03:30:21.558Z,15.45
2023-08-05T03:31:21.590Z,15.66
2023-08-05T03:32:21.531Z,15.59
2023-08-05T03:33:21.538Z,15.54
2023-08-05T03:34:21.509Z,15.59
2023-08-05T03:35:21.517Z,15.56
2023-08-05T03:36:21.490Z,15.52
2023-08-05T03:37:21.486Z,15.52
2023-08-05T03:38:21.489Z,15.56
2023-08-05T03:39:21.459Z,15.60
2023-08-05T03:40:21.471Z,15.52
2023-08-05T03:41:21.433Z,15.52
2023-08-05T03:42:21.423Z,15.59
2023-08-05T03:43:21.427Z,15.48
2023-08-05T03:44:21.399Z,15.60
2023-08-05T03:45:21.393Z,15.57
2023-08-05T03:46:21.435Z,15.64
2023-08-05T03:47:21.392Z,15.52
2023-08-05T03:48:21.419Z,15.56
2023-08-05T03:49:21.354Z,15.52
2023-08-05T03:50:21.333Z,15.51
2023-08-05T03:51:21.336Z,15.56
2023-08-05T03:52:21.310Z,15.52
2023-08-05T03:53:21.326Z,15.48
2023-08-05T03:54:21.292Z,15.49
2023-08-05T03:55:21.285Z,15.52
2023-08-05T03:56:21.291Z,15.57
2023-08-05T03:57:21.271Z,15.45
2023-08-05T03:58:21.384Z,15.54
2023-08-05T03:59:21.239Z,15.43
2023-08-05T04:00:21.229Z,15.35
2023-08-05T04:01:21.267Z,15.42
2023-08-05T04:02:21.202Z,15.51
2023-08-05T04:03:21.245Z,15.46
2023-08-05T04:04:21.180Z,15.45
2023-08-05T04:05:21.175Z,15.51
2023-08-05T04:06:21.164Z,15.48
2023-08-05T04:07:21.153Z,15.39
2023-08-05T04:08:21.237Z,15.45
2023-08-05T04:09:21.125Z,15.49
2023-08-05T04:10:21.115Z,15.46
2023-08-05T04:11:21.121Z,15.38
2023-08-05T04:12:21.114Z,15.48
2023-08-05T04:13:21.105Z,15.41
2023-08-05T04:14:21.096Z,15.45
2023-08-05T04:15:21.058Z,15.45
2023-08-05T04:16:21.160Z,15.45
2023-08-05T04:17:21.035Z,15.46
2023-08-05T04:18:21.071Z,15.43
2023-08-05T04:19:21.011Z,15.46
2023-08-05T04:20:21.008Z,15.54
2023-08-05T04:21:20.988Z,15.54
2023-08-05T04:22:21.012Z,15.54
2023-08-05T04:23:21.000Z,15.59
2023-08-05T04:24:20.969Z,15.52
2023-08-05T04:25:20.944Z,15.49
2023-08-05T04:26:20.934Z,15.45
2023-08-05T04:27:20.926Z,15.48
2023-08-05T04:28:20.984Z,15.54
2023-08-05T04:29:20.962Z,15.54
2023-08-05T04:30:20.896Z,15.48
2023-08-05T04:31:20.905Z,15.56
2023-08-05T04:32:20.927Z,15.46
2023-08-05T04:33:20.879Z,15.59
2023-08-05T04:34:20.860Z,15.54
2023-08-05T04:35:20.839Z,15.63
2023-08-05T04:36:20.837Z,15.59
2023-08-05T04:37:20.878Z,15.59
2023-08-05T04:38:20.877Z,15.57
2023-08-05T04:39:20.788Z,15.60
2023-08-05T04:40:20.790Z,15.72
2023-08-05T04:41:20.767Z,15.61
2023-08-05T04:42:20.758Z,15.64
2023-08-05T04:43:20.772Z,15.66
2023-08-05T04:44:20.754Z,15.61
2023-08-05T04:45:20.856Z,15.63
2023-08-05T04:46:20.716Z,15.70
2023-08-05T04:47:20.696Z,15.64
2023-08-05T04:48:20.737Z,15.72
2023-08-05T04:49:20.696Z,15.70
2023-08-05T04:50:20.705Z,15.67
2023-08-05T04:51:20.696Z,15.66
2023-08-05T04:52:20.655Z,15.67
2023-08-05T04:53:20.632Z,15.67
2023-08-05T04:54:20.622Z,15.64
2023-08-05T04:55:20.653Z,15.64
2023-08-05T04:56:20.597Z,15.60
2023-08-05T04:57:20.590Z,15.70
2023-08-05T04:58:20.576Z,15.70
2023-08-05T04:59:20.561Z,15.67
2023-08-05T05:00:20.624Z,15.63
2023-08-05T05:01:20.573Z,15.63
2023-08-05T05:02:20.531Z,15.67
2023-08-05T05:03:20.599Z,15.74
2023-08-05T05:04:20.511Z,15.74
2023-08-05T05:05:20.503Z,15.75
2023-08-05T05:06:20.519Z,15.67
2023-08-05T05:07:20.471Z,15.68
2023-08-05T05:08:20.467Z,15.70
2023-08-05T05:09:20.459Z,15.79
2023-08-05T05:10:20.440Z,15.81
2023-08-05T05:11:20.440Z,15.76
2023-08-05T05:12:20.436Z,15.82
2023-08-05T05:13:20.433Z,15.89
2023-08-05T05:14:20.396Z,15.96
2023-08-05T05:15:20.390Z,15.94
2023-08-05T05:16:20.396Z,15.96
2023-08-05T05:17:20.363Z,15.93
2023-08-05T05:18:20.353Z,16.00
2023-08-05T05:19:20.367Z,15.96
2023-08-05T05:20:20.333Z,15.92
2023-08-05T05:21:20.329Z,16.03
2023-08-05T05:22:20.327Z,15.96
2023-08-05T05:23:20.329Z,15.94
2023-08-05T05:24:20.285Z,15.94
2023-08-05T05:25:20.284Z,16.09
2023-08-05T05:26:20.282Z,16.04
2023-08-05T05:27:20.253Z,15.96
2023-08-05T05:28:20.245Z,16.04
2023-08-05T05:29:20.254Z,16.06
2023-08-05T05:30:20.223Z,16.03
2023-08-05T05:31:22.374Z,16.11
2023-08-05T05:32:20.220Z,16.14
2023-08-05T05:33:20.186Z,16.18
2023-08-05T05:34:20.175Z,16.25
2023-08-05T05:35:20.177Z,16.12
2023-08-05T05:36:20.151Z,16.12
2023-08-05T05:37:20.145Z,16.01
2023-08-05T05:38:20.129Z,16.03
2023-08-05T05:39:20.123Z,15.96
2023-08-05T05:40:20.131Z,15.94
2023-08-05T05:41:20.095Z,15.96
2023-08-05T05:42:20.086Z,15.96
2023-08-05T05:43:20.078Z,15.97
2023-08-05T05:44:20.067Z,15.96
2023-08-05T05:45:20.083Z,15.97
2023-08-05T05:46:20.091Z,16.03
2023-08-05T05:47:20.035Z,16.15
2023-08-05T05:48:20.044Z,16.09
2023-08-05T05:49:20.026Z,16.15
2023-08-05T05:50:20.012Z,16.09
2023-08-05T05:51:20.024Z,16.11
2023-08-05T05:52:19.990Z,16.07
2023-08-05T05:53:19.988Z,16.26
2023-08-05T05:54:19.967Z,16.33
2023-08-05T05:55:19.941Z,16.55
2023-08-05T05:56:19.938Z,16.53
2023-08-05T05:57:19.940Z,16.63
2023-08-05T05:58:19.913Z,16.73
2023-08-05T05:59:19.906Z,16.81
2023-08-05T06:00:19.888Z,16.86
2023-08-05T06:01:19.898Z,16.98
2023-08-05T06:02:19.887Z,17.04
2023-08-05T06:03:19.949Z,17.18
2023-08-05T06:04:22.792Z,17.18
2023-08-05T06:05:19.838Z,17.20
2023-08-05T06:06:19.822Z,17.14
2023-08-05T06:07:19.814Z,17.20
2023-08-05T06:08:19.826Z,17.35
2023-08-05T06:09:19.796Z,17.17
2023-08-05T06:10:19.824Z,17.18
2023-08-05T06:11:19.768Z,17.03
2023-08-05T06:12:19.757Z,16.95
2023-08-05T06:13:19.742Z,16.80
2023-08-05T06:14:19.751Z,16.85
2023-08-05T06:15:19.727Z,16.77
2023-08-05T06:16:19.746Z,16.89
2023-08-05T06:17:19.697Z,16.83
2023-08-05T06:18:19.694Z,16.98
2023-08-05T06:19:19.699Z,16.89
2023-08-05T06:20:19.706Z,16.90
2023-08-05T06:21:21.083Z,16.99
2023-08-05T06:22:19.643Z,16.83
2023-08-05T06:23:19.635Z,16.93
2023-08-05T06:24:19.621Z,16.83
2023-08-05T06:25:19.617Z,16.96
2023-08-05T06:26:19.602Z,16.90
2023-08-05T06:27:19.593Z,16.88
2023-08-05T06:28:19.624Z,16.80
2023-08-05T06:29:19.562Z,16.90
2023-08-05T06:30:19.584Z,16.98
2023-08-05T06:31:19.568Z,16.90
2023-08-05T06:32:19.533Z,17.03
2023-08-05T06:33:19.520Z,17.00
2023-08-05T06:34:19.512Z,17.04
2023-08-05T06:35:19.504Z,17.13
2023-08-05T06:36:19.531Z,16.99
2023-08-05T06:37:19.471Z,16.96
2023-08-05T06:38:19.458Z,16.89
2023-08-05T06:39:19.448Z,16.81
2023-08-05T06:40:19.441Z,16.93
2023-08-05T06:41:19.426Z,16.78
2023-08-05T06:42:19.435Z,16.86
2023-08-05T06:43:19.425Z,16.70
2023-08-05T06:44:19.400Z,16.74
2023-08-05T06:45:19.377Z,16.59
2023-08-05T06:46:19.531Z,16.56
2023-08-05T06:47:19.372Z,16.58
2023-08-05T06:48:19.345Z,16.73
2023-08-05T06:49:19.349Z,16.63
2023-08-05T06:50:19.324Z,16.67
2023-08-05T06:51:19.310Z,16.62
2023-08-05T06:52:19.360Z,16.67
2023-08-05T06:53:19.299Z,16.58
2023-08-05T06:54:19.281Z,16.58
2023-08-05T06:55:19.264Z,16.62
2023-08-05T06:56:19.265Z,16.59
2023-08-05T06:57:19.287Z,16.59
2023-08-05T06:58:19.238Z,16.52
2023-08-05T06:59:19.225Z,16.60
2023-08-05T07:00:19.231Z,16.60
2023-08-05T07:01:19.223Z,16.78
2023-08-05T07:02:19.188Z,16.73
2023-08-05T07:03:19.199Z,16.81
2023-08-05T07:04:19.221Z,16.86
2023-08-05T07:05:19.192Z,16.98
2023-08-05T07:06:19.148Z,17.17
2023-08-05T07:07:19.129Z,17.33
2023-08-05T07:08:19.140Z,17.46
2023-08-05T07:09:19.143Z,17.53
2023-08-05T07:10:19.105Z,17.73
2023-08-05T07:11:19.091Z,17.73
2023-08-05T07:12:19.078Z,17.79
2023-08-05T07:13:19.063Z,17.92
2023-08-05T07:14:19.086Z,17.94
2023-08-05T07:15:19.051Z,17.95
2023-08-05T07:16:19.071Z,18.07
2023-08-05T07:17:19.023Z,18.13
2023-08-05T07:18:19.011Z,18.28
2023-08-05T07:19:18.995Z,18.49
2023-08-05T07:20:19.020Z,18.70
2023-08-05T07:21:18.995Z,18.86
2023-08-05T07:22:18.972Z,19.05
2023-08-05T07:23:18.963Z,19.33
2023-08-05T07:24:18.965Z,19.40
2023-08-05T07:25:18.931Z,19.57
2023-08-05T07:26:18.959Z,19.47
2023-08-05T07:27:18.910Z,19.50
2023-08-05T07:28:18.900Z,19.40
2023-08-05T07:29:18.896Z,19.25
2023-08-05T07:30:18.898Z,19.11
2023-08-05T07:31:18.971Z,18.99
2023-08-05T07:32:18.859Z,18.87
2023-08-05T07:33:18.844Z,18.87
2023-08-05T07:34:18.835Z,18.95
2023-08-05T07:35:18.822Z,18.95
2023-08-05T07:36:18.808Z,18.84
2023-08-05T07:37:18.837Z,18.84
2023-08-05T07:38:18.788Z,18.73
2023-08-05T07:39:18.779Z,18.70
2023-08-05T07:40:18.802Z,18.68
2023-08-05T07:41:18.769Z,18.70
2023-08-05T07:42:18.748Z,18.65
2023-08-05T07:43:18.746Z,18.65
2023-08-05T07:44:18.750Z,18.76
2023-08-05T07:45:18.706Z,18.74
2023-08-05T07:46:18.744Z,18.86
2023-08-05T07:47:18.690Z,19.13
2023-08-05T07:48:18.672Z,19.20
2023-08-05T07:49:18.721Z,19.06
2023-08-05T07:50:18.655Z,19.05
2023-08-05T07:51:18.639Z,19.23
2023-08-05T07:52:19.431Z,19.21
2023-08-05T07:53:18.615Z,19.28
2023-08-05T07:54:18.632Z,19.28
2023-08-05T07:55:18.598Z,19.20
2023-08-05T07:56:18.608Z,19.02
2023-08-05T07:57:18.569Z,18.95
2023-08-05T07:58:18.563Z,18.91
2023-08-05T07:59:18.600Z,18.91
2023-08-05T08:00:18.552Z,18.84
2023-08-05T08:01:18.665Z,18.72
2023-08-05T08:02:18.530Z,18.77
2023-08-05T08:03:18.531Z,19.13
2023-08-05T08:04:18.511Z,19.32
2023-08-05T08:05:18.490Z,19.48
2023-08-05T08:06:21.715Z,19.48
2023-08-05T08:07:18.459Z,19.42
2023-08-05T08:08:18.450Z,19.60
2023-08-05T08:09:18.453Z,19.65
2023-08-05T08:10:18.442Z,19.50
2023-08-05T08:11:18.434Z,19.53
2023-08-05T08:12:18.433Z,19.57
2023-08-05T08:13:18.407Z,19.90
2023-08-05T08:14:18.390Z,20.16
2023-08-05T08:15:18.374Z,20.56
2023-08-05T08:16:18.393Z,20.80
2023-08-05T08:17:18.362Z,21.08
2023-08-05T08:18:18.340Z,21.17
2023-08-05T08:19:18.340Z,21.19
2023-08-05T08:20:18.318Z,21.30
2023-08-05T08:21:18.317Z,21.24
2023-08-05T08:22:18.320Z,21.16
2023-08-05T08:23:18.951Z,21.13
2023-08-05T08:24:18.274Z,20.99
2023-08-05T08:25:18.289Z,20.96
2023-08-05T08:26:18.250Z,20.87
2023-08-05T08:27:18.247Z,20.81
2023-08-05T08:28:18.293Z,20.76
2023-08-05T08:29:18.240Z,20.62
2023-08-05T08:30:18.215Z,20.80
2023-08-05T08:31:18.214Z,20.71
2023-08-05T08:32:18.210Z,20.87
2023-08-05T08:33:18.302Z,20.83
2023-08-05T08:34:18.183Z,20.76
2023-08-05T08:35:18.157Z,20.87
2023-08-05T08:36:18.147Z,20.79
2023-08-05T08:37:18.131Z,20.86
2023-08-05T08:38:18.121Z,20.79
2023-08-05T08:39:18.135Z,20.66
2023-08-05T08:40:18.100Z,20.54
2023-08-05T08:41:18.087Z,20.50
2023-08-05T08:42:18.071Z,20.42
2023-08-05T08:43:18.062Z,20.42
2023-08-05T08:44:18.110Z,20.34
2023-08-05T08:45:18.053Z,20.18
2023-08-05T08:46:18.038Z,20.13
2023-08-05T08:47:18.019Z,20.25
2023-08-05T08:48:18.026Z,20.13
2023-08-05T08:49:18.014Z,20.23
2023-08-05T08:50:17.996Z,20.18
2023-08-05T08:51:18.227Z,20.12
2023-08-05T08:52:17.970Z,20.25
2023-08-05T08:53:17.954Z,20.23
2023-08-05T08:54:17.967Z,20.30
2023-08-05T08:55:17.933Z,20.27
2023-08-05T08:56:17.914Z,20.21
2023-08-05T08:57:17.933Z,20.16
2023-08-05T08:58:17.898Z,20.21
2023-08-05T08:59:17.934Z,20.18
2023-08-05T09:00:17.935Z,20.20
2023-08-05T09:01:17.922Z,20.38
2023-08-05T09:02:17.870Z,20.59
2023-08-05T09:03:17.902Z,20.51
2023-08-05T09:04:17.828Z,20.34
2023-08-05T09:05:17.824Z,20.47
2023-08-05T09:06:17.821Z,20.77
2023-08-05T09:07:17.800Z,20.99
2023-08-05T09:08:17.853Z,21.06
2023-08-05T09:09:17.790Z,21.08
2023-08-05T09:10:17.782Z,21.32
2023-08-05T09:11:17.777Z,21.72
2023-08-05T09:12:17.743Z,22.19
2023-08-05T09:13:17.725Z,22.84
2023-08-05T09:14:17.732Z,23.12
2023-08-05T09:15:17.717Z,23.46
2023-08-05T09:16:17.796Z,23.35
2023-08-05T09:17:17.685Z,23.02
2023-08-05T09:18:17.679Z,23.29
2023-08-05T09:19:17.660Z,23.50
2023-08-05T09:20:17.684Z,23.52
2023-08-05T09:21:17.640Z,23.31
2023-08-05T09:22:17.650Z,23.05
2023-08-05T09:23:17.644Z,22.86
2023-08-05T09:24:17.613Z,22.83
2023-08-05T09:25:17.595Z,22.93
2023-08-05T09:26:17.588Z,23.40
2023-08-05T09:27:17.577Z,23.49
2023-08-05T09:28:17.588Z,23.42
2023-08-05T09:29:17.555Z,23.34
2023-08-05T09:30:17.616Z,23.02
2023-08-05T09:31:17.705Z,22.75
2023-08-05T09:32:22.558Z,22.68
2023-08-05T09:33:18.610Z,22.78
2023-08-05T09:34:17.494Z,22.93
2023-08-05T09:35:17.504Z,23.02
2023-08-05T09:36:17.474Z,23.35
2023-08-05T09:37:17.473Z,23.71
2023-08-05T09:38:17.578Z,24.10
2023-08-05T09:39:17.454Z,24.27
2023-08-05T09:40:17.438Z,24.10
2023-08-05T09:41:17.423Z,23.65
2023-08-05T09:42:17.408Z,23.27
2023-08-05T09:43:17.426Z,22.89
2023-08-05T09:44:17.392Z,22.39
2023-08-05T09:45:17.375Z,22.10
2023-08-05T09:46:17.375Z,21.99
2023-08-05T09:47:17.366Z,21.83
2023-08-05T09:48:17.383Z,21.63
2023-08-05T09:49:17.333Z,21.46
2023-08-05T09:50:17.368Z,21.44
2023-08-05T09:51:17.328Z,21.36
2023-08-05T09:52:17.301Z,21.36
2023-08-05T09:53:17.308Z,21.39
2023-08-05T09:54:17.280Z,21.26
2023-08-05T09:55:17.275Z,21.26
2023-08-05T09:56:17.259Z,21.13
2023-08-05T09:57:17.250Z,21.14
2023-08-05T09:58:17.237Z,21.14
2023-08-05T09:59:17.244Z,21.20
2023-08-05T10:00:17.303Z,21.27
2023-08-05T10:01:17.264Z,21.26
2023-08-05T10:02:17.188Z,21.24
2023-08-05T10:03:17.185Z,21.24
2023-08-05T10:04:17.345Z,21.14
2023-08-05T10:05:17.155Z,21.14
2023-08-05T10:06:17.157Z,21.08
2023-08-05T10:07:17.140Z,21.14
2023-08-05T10:08:17.120Z,21.17
2023-08-05T10:09:17.165Z,21.20
2023-08-05T10:10:17.278Z,21.34
2023-08-05T10:11:17.094Z,21.27
2023-08-05T10:12:17.166Z,21.36
2023-08-05T10:13:17.065Z,21.41
2023-08-05T10:14:17.060Z,21.36
2023-08-05T10:15:17.046Z,21.42
2023-08-05T10:16:17.099Z,21.45
2023-08-05T10:17:17.020Z,21.50
2023-08-05T10:18:17.019Z,21.64
2023-08-05T10:19:17.159Z,21.90
2023-08-05T10:20:17.008Z,21.85
2023-08-05T10:21:16.993Z,21.82
2023-08-05T10:22:16.963Z,21.83
2023-08-05T10:23:16.953Z,21.85
2023-08-05T10:24:16.941Z,21.79
2023-08-05T10:25:16.943Z,21.81
2023-08-05T10:26:16.920Z,21.74
2023-08-05T10:27:16.929Z,21.69
2023-08-05T10:28:16.895Z,21.64
2023-08-05T10:29:16.888Z,21.66
2023-08-05T10:30:16.897Z,21.66
2023-08-05T10:31:16.915Z,21.76
2023-08-05T10:32:16.875Z,21.88
2023-08-05T10:33:16.859Z,21.85
2023-08-05T10:34:16.829Z,21.83
2023-08-05T10:35:16.824Z,21.83
2023-08-05T10:36:16.831Z,21.97
2023-08-05T10:37:16.830Z,22.07
2023-08-05T10:38:17.402Z,22.20
2023-08-05T10:39:16.777Z,22.09
2023-08-05T10:40:16.787Z,22.09
2023-08-05T10:41:16.781Z,22.09
2023-08-05T10:42:16.744Z,21.99
2023-08-05T10:43:16.788Z,22.04
2023-08-05T10:44:16.725Z,22.06
2023-08-05T10:45:16.741Z,22.01
2023-08-05T10:46:16.736Z,21.98
2023-08-05T10:47:16.691Z,22.02
2023-08-05T10:48:16.697Z,21.99
2023-08-05T10:49:16.672Z,22.04
2023-08-05T10:50:16.656Z,22.01
2023-08-05T10:51:16.647Z,21.95
2023-08-05T10:52:16.649Z,21.92
2023-08-05T10:53:16.673Z,21.99
2023-08-05T10:54:16.614Z,22.02
2023-08-05T10:55:16.596Z,22.12
2023-08-05T10:56:16.585Z,22.01
2023-08-05T10:57:16.582Z,22.07
2023-08-05T10:58:16.595Z,22.20
2023-08-05T10:59:16.552Z,22.14
2023-08-05T11:00:16.569Z,22.09
2023-08-05T11:01:16.595Z,21.98
2023-08-05T11:02:16.614Z,21.97
2023-08-05T11:03:16.643Z,22.02
2023-08-05T11:04:16.507Z,21.94
2023-08-05T11:05:16.550Z,21.97
2023-08-05T11:06:16.473Z,21.82
2023-08-05T11:07:16.485Z,21.98
2023-08-05T11:08:16.489Z,21.95
2023-08-05T11:09:16.448Z,21.98
2023-08-05T11:10:16.424Z,21.91
2023-08-05T11:11:16.431Z,22.04
2023-08-05T11:12:16.416Z,22.02
2023-08-05T11:13:16.397Z,21.91
2023-08-05T11:14:16.408Z,21.99
2023-08-05T11:15:16.371Z,21.99
2023-08-05T11:16:16.452Z,22.17
2023-08-05T11:17:16.365Z,22.23
2023-08-05T11:18:16.341Z,22.20
2023-08-05T11:19:16.357Z,22.12
2023-08-05T11:20:16.322Z,22.19
2023-08-05T11:21:16.324Z,22.16
2023-08-05T11:22:16.306Z,22.14
2023-08-05T11:23:16.281Z,22.01
2023-08-05T11:24:16.321Z,22.10
2023-08-05T11:25:16.262Z,21.98
2023-08-05T11:26:16.272Z,21.94
2023-08-05T11:27:16.237Z,21.82
2023-08-05T11:28:16.224Z,21.91
2023-08-05T11:29:16.229Z,21.88
2023-08-05T11:30:16.269Z,21.83
2023-08-05T11:31:16.224Z,21.79
2023-08-05T11:32:16.182Z,21.72
2023-08-05T11:33:16.173Z,21.72
2023-08-05T11:34:16.180Z,21.72
2023-08-05T11:35:16.146Z,21.74
2023-08-05T11:36:16.136Z,21.74
2023-08-05T11:37:16.130Z,21.83
2023-08-05T11:38:16.116Z,21.81
2023-08-05T11:39:16.129Z,21.75
2023-08-05T11:40:16.116Z,21.74
2023-08-05T11:41:16.084Z,21.91
2023-08-05T11:42:16.095Z,21.81
2023-08-05T11:43:16.120Z,21.79
2023-08-05T11:44:16.047Z,21.90
2023-08-05T11:45:16.066Z,21.92
2023-08-05T11:46:16.045Z,21.79
2023-08-05T11:47:16.032Z,22.02
2023-08-05T11:48:16.007Z,22.14
2023-08-05T11:49:15.994Z,22.22
2023-08-05T11:50:15.987Z,22.35
2023-08-05T11:51:15.995Z,22.46
2023-08-05T11:52:15.961Z,22.50
2023-08-05T11:53:15.952Z,22.59
2023-08-05T11:54:15.968Z,22.69
2023-08-05T11:55:15.940Z,22.67
2023-08-05T11:56:15.952Z,22.69
2023-08-05T11:57:15.916Z,22.60
2023-08-05T11:58:15.894Z,22.67
2023-08-05T11:59:15.891Z,22.56
2023-08-05T12:00:15.874Z,22.65
2023-08-05T12:01:15.918Z,22.50
2023-08-05T12:02:15.850Z,22.57
2023-08-05T12:03:15.877Z,22.68
2023-08-05T12:04:15.848Z,22.69
2023-08-05T12:05:15.819Z,22.68
2023-08-05T12:06:15.809Z,22.75
2023-08-05T12:07:15.828Z,22.74
2023-08-05T12:08:15.787Z,22.80
2023-08-05T12:09:15.777Z,22.68
2023-08-05T12:10:15.762Z,22.65
2023-08-05T12:11:15.767Z,22.69
2023-08-05T12:12:15.782Z,22.60
2023-08-05T12:13:15.731Z,22.52
2023-08-05T12:14:15.722Z,22.43
2023-08-05T12:15:15.717Z,22.34
2023-08-05T12:16:15.734Z,22.34
2023-08-05T12:17:15.693Z,22.41
2023-08-05T12:18:15.701Z,22.32
2023-08-05T12:19:16.232Z,22.39
2023-08-05T12:20:15.668Z,22.20
2023-08-05T12:21:15.715Z,22.19
2023-08-05T12:22:15.665Z,22.04
2023-08-05T12:23:15.627Z,22.09
2023-08-05T12:24:15.612Z,22.02
2023-08-05T12:25:15.604Z,22.02
2023-08-05T12:26:15.591Z,21.98
2023-08-05T12:27:15.615Z,22.02
2023-08-05T12:28:15.602Z,21.82
2023-08-05T12:29:15.558Z,21.92
2023-08-05T12:30:15.554Z,22.01
2023-08-05T12:31:15.555Z,21.95
2023-08-05T12:32:15.531Z,21.98
2023-08-05T12:33:16.606Z,21.97
2023-08-05T12:34:15.500Z,21.92
2023-08-05T12:35:15.505Z,21.98
2023-08-05T12:36:15.507Z,21.95
2023-08-05T12:37:15.466Z,22.01
2023-08-05T12:38:15.486Z,22.02
2023-08-05T12:39:15.454Z,21.98
2023-08-05T12:40:15.432Z,21.94
2023-08-05T12:41:15.422Z,21.95
2023-08-05T12:42:15.413Z,21.98
2023-08-05T12:43:15.430Z,21.98
2023-08-05T12:44:15.412Z,21.99
2023-08-05T12:45:15.416Z,21.85
2023-08-05T12:46:15.396Z,21.81
2023-08-05T12:47:15.365Z,21.76
2023-08-05T12:48:15.342Z,21.72
2023-08-05T12:49:15.349Z,21.64
2023-08-05T12:50:15.330Z,21.74
2023-08-05T12:51:15.313Z,21.64
2023-08-05T12:52:15.300Z,21.60